Time;durP1;ratioP1;P1;durP2;ratioP2;P2;SDS_P1;SDS_P2;PMS_P1;PMS_P2;Temp;Humidity;BMP_temperature;BMP_pressure;BME280_temperature;BME280_humidity;BME280_pressure;Samples;Min_cycle;Max_cycle;Signal;HPM_P1;HPM_P2
2023/05/05 00:00:53;;;;;;;26.65;25.25;;;;;;;;;;5002772;28;20305;-58
2023/05/05 00:03:20;;;;;;;23.65;22.35;;;;;;;;;;5004619;28;20421;-59
2023/05/05 00:05:50;;;;;;;23.88;22.58;;;;;;;;;;5001891;28;20044;-59
2023/05/05 00:08:16;;;;;;;21.13;19.92;;;;;;;;;;5003550;28;20057;-59
2023/05/05 00:10:46;;;;;;;19.00;17.95;;;;;;;;;;5005066;28;20044;-59
2023/05/05 00:13:12;;;;;;;19.83;18.73;;;;;;;;;;5000430;28;20333;-58
2023/05/05 00:15:38;;;;;;;20.50;19.40;;;;;;;;;;5006968;28;20065;-59
2023/05/05 00:18:03;;;;;;;22.13;20.92;;;;;;;;;;5001955;28;20069;-59
2023/05/05 00:20:30;;;;;;;21.73;20.52;;;;;;;;;;5001550;28;20124;-59
2023/05/05 00:22:55;;;;;;;21.90;20.70;;;;;;;;;;4999831;28;20037;-59
2023/05/05 00:25:21;;;;;;;24.83;23.48;;;;;;;;;;4988573;28;20544;-59
2023/05/05 00:27:46;;;;;;;26.38;24.92;;;;;;;;;;5001546;28;20037;-58
2023/05/05 00:30:12;;;;;;;27.85;26.38;;;;;;;;;;4998459;28;20084;-58
2023/05/05 00:32:38;;;;;;;36.70;34.78;;;;;;;;;;5002204;28;20038;-59
2023/05/05 00:35:04;;;;;;;32.42;30.73;;;;;;;;;;5003904;28;20049;-59
2023/05/05 00:37:30;;;;;;;35.30;33.47;;;;;;;;;;5000803;28;20033;-59
2023/05/05 00:39:55;;;;;;;35.17;33.35;;;;;;;;;;4999335;28;20096;-58
2023/05/05 00:42:20;;;;;;;43.45;41.25;;;;;;;;;;4999674;28;20046;-59
2023/05/05 00:44:46;;;;;;;46.65;44.20;;;;;;;;;;5001572;28;20034;-58
2023/05/05 00:47:13;;;;;;;38.30;36.15;;;;;;;;;;5000687;28;20122;-59
2023/05/05 00:49:38;;;;;;;39.42;37.38;;;;;;;;;;5000843;28;20049;-58
2023/05/05 00:52:06;;;;;;;53.97;51.22;;;;;;;;;;5000636;28;20038;-58
2023/05/05 00:54:33;;;;;;;60.97;57.88;;;;;;;;;;4999099;28;20037;-59
2023/05/05 00:56:58;;;;;;;61.20;58.13;;;;;;;;;;4998126;28;20034;-59
2023/05/05 00:59:24;;;;;;;64.20;60.95;;;;;;;;;;5000892;28;20077;-59
2023/05/05 01:01:50;;;;;;;70.90;67.32;;;;;;;;;;5000632;28;20033;-59
2023/05/05 01:04:15;;;;;;;71.57;67.93;;;;;;;;;;4998519;28;20119;-58
2023/05/05 01:07:06;;;;;;;54.97;52.20;;;;;;;;;;4980086;28;20057;-58
2023/05/05 01:09:47;;;;;;;49.53;47.03;;;;;;;;;;5001332;28;20357;-59
2023/05/05 01:12:40;;;;;;;52.30;49.45;;;;;;;;;;4999956;28;20042;-58
2023/05/05 01:15:33;;;;;;;59.75;56.63;;;;;;;;;;4999739;28;20050;-58
2023/05/05 01:18:36;;;;;;;52.25;49.60;;;;;;;;;;4990356;28;20077;-58
2023/05/05 01:21:22;;;;;;;52.30;49.58;;;;;;;;;;4999626;28;20040;-58
2023/05/05 01:24:23;;;;;;;60.80;57.50;;;;;;;;;;5000035;28;20100;-59
2023/05/05 01:27:08;;;;;;;;;;;;;;;;;;4987593;28;20026;-58
2023/05/05 01:29:58;;;;;;;41.70;39.50;;;;;;;;;;4997161;28;19992;-58
2023/05/05 01:32:25;;;;;;;45.65;43.28;;;;;;;;;;4997825;28;20031;-59
2023/05/05 01:35:01;;;;;;;42.53;40.00;;;;;;;;;;4998691;28;20034;-58
2023/05/05 01:37:36;;;;;;;30.67;29.08;;;;;;;;;;4998967;28;20042;-59
2023/05/05 01:40:05;;;;;;;28.02;26.52;;;;;;;;;;4998820;28;20034;-59
2023/05/05 01:42:32;;;;;;;25.73;24.00;;;;;;;;;;4998637;28;20060;-59
2023/05/05 01:44:59;;;;;;;25.98;24.58;;;;;;;;;;5001618;28;20113;-58
2023/05/05 01:47:26;;;;;;;27.63;26.15;;;;;;;;;;4999696;28;20026;-58
2023/05/05 01:49:52;;;;;;;27.52;26.05;;;;;;;;;;4997729;28;20627;-58
2023/05/05 01:52:19;;;;;;;32.45;29.77;;;;;;;;;;4998037;28;20415;-57
2023/05/05 01:54:45;;;;;;;32.38;30.65;;;;;;;;;;5000513;28;20037;-58
2023/05/05 01:57:13;;;;;;;33.05;31.30;;;;;;;;;;5000098;28;20121;-58
2023/05/05 01:59:39;;;;;;;28.95;27.45;;;;;;;;;;5000533;28;20041;-59
2023/05/05 02:02:07;;;;;;;27.00;25.60;;;;;;;;;;4998620;28;20044;-59
2023/05/05 02:04:35;;;;;;;28.25;26.67;;;;;;;;;;4996847;28;20128;-58
2023/05/05 02:07:02;;;;;;;28.08;26.55;;;;;;;;;;4980670;28;20041;-58
2023/05/05 02:09:29;;;;;;;30.92;29.27;;;;;;;;;;4997299;28;20038;-58
2023/05/05 02:11:56;;;;;;;27.48;26.00;;;;;;;;;;4997769;28;20108;-58
2023/05/05 02:14:24;;;;;;;27.52;26.00;;;;;;;;;;4993872;28;20030;-58
2023/05/05 02:16:50;;;;;;;29.58;27.98;;;;;;;;;;4997553;28;20034;-58
2023/05/05 02:19:20;;;;;;;29.98;28.40;;;;;;;;;;4997189;28;20049;-58
2023/05/05 02:21:45;;;;;;;28.10;26.60;;;;;;;;;;5001168;28;20066;-58
2023/05/05 02:24:11;;;;;;;29.65;28.10;;;;;;;;;;4996715;28;20707;-58
2023/05/05 02:26:39;;;;;;;29.50;27.95;;;;;;;;;;4983849;28;20038;-58
2023/05/05 02:29:17;;;;;;;28.17;26.70;;;;;;;;;;4998430;28;20124;-58
2023/05/05 02:31:46;;;;;;;29.33;27.75;;;;;;;;;;4999699;28;20364;-57
2023/05/05 02:34:15;;;;;;;27.10;25.63;;;;;;;;;;4999954;28;20038;-57
2023/05/05 02:36:42;;;;;;;26.63;25.17;;;;;;;;;;5000234;28;20044;-58
2023/05/05 02:39:13;;;;;;;29.55;27.95;;;;;;;;;;4995414;28;20791;-58
2023/05/05 02:41:41;;;;;;;25.50;24.13;;;;;;;;;;4997414;28;20048;-57
2023/05/05 02:44:09;;;;;;;26.88;25.40;;;;;;;;;;4995971;28;20052;-58
2023/05/05 02:46:36;;;;;;;25.88;24.50;;;;;;;;;;4997577;28;20187;-57
2023/05/05 02:49:01;;;;;;;25.95;24.52;;;;;;;;;;4999111;28;20038;-57
2023/05/05 02:51:26;;;;;;;30.38;28.77;;;;;;;;;;4981673;28;20488;-57
2023/05/05 02:53:52;;;;;;;28.42;26.92;;;;;;;;;;4996181;28;20622;-57
2023/05/05 02:56:36;;;;;;;25.17;23.83;;;;;;;;;;4999639;28;20479;-58
2023/05/05 02:59:14;;;;;;;21.98;20.75;;;;;;;;;;4995359;28;20049;-58
2023/05/05 03:02:09;;;;;;;21.70;20.52;;;;;;;;;;5000834;28;20113;-58
2023/05/05 03:04:41;;;;;;;19.98;18.85;;;;;;;;;;4995321;28;20077;-58
2023/05/05 03:07:14;;;;;;;19.42;18.38;;;;;;;;;;4997016;28;20044;-58
2023/05/05 03:09:45;;;;;;;16.80;15.85;;;;;;;;;;4996008;28;20511;-57
2023/05/05 03:12:20;;;;;;;16.13;15.23;;;;;;;;;;4999335;28;20129;-59
2023/05/05 03:14:50;;;;;;;18.67;17.63;;;;;;;;;;4994462;28;20104;-59
2023/05/05 03:17:18;;;;;;;15.38;14.50;;;;;;;;;;4999195;28;20054;-58
2023/05/05 03:19:44;;;;;;;15.77;14.82;;;;;;;;;;4996832;28;21270;-59
2023/05/05 03:22:10;;;;;;;17.55;16.55;;;;;;;;;;4998253;28;20041;-58
2023/05/05 03:24:35;;;;;;;16.67;15.73;;;;;;;;;;4978448;28;20431;-58
2023/05/05 03:27:01;;;;;;;16.15;15.25;;;;;;;;;;4992846;28;20033;-58
2023/05/05 03:29:28;;;;;;;16.67;15.73;;;;;;;;;;4998758;28;20100;-58
2023/05/05 03:31:54;;;;;;;17.42;16.38;;;;;;;;;;4997013;28;20125;-58
2023/05/05 03:34:19;;;;;;;14.32;13.50;;;;;;;;;;4978248;28;20113;-59
2023/05/05 03:36:45;;;;;;;13.30;12.52;;;;;;;;;;4979636;28;20108;-58
2023/05/05 03:39:10;;;;;;;14.10;13.20;;;;;;;;;;4997869;28;20046;-58
2023/05/05 03:41:35;;;;;;;14.13;13.25;;;;;;;;;;4993809;28;20046;-58
2023/05/05 03:44:01;;;;;;;11.88;11.18;;;;;;;;;;4997736;28;20038;-58
2023/05/05 03:46:26;;;;;;;12.38;11.63;;;;;;;;;;4976115;28;20045;-58
2023/05/05 03:48:52;;;;;;;11.82;11.13;;;;;;;;;;4997772;28;20042;-58
2023/05/05 03:51:17;;;;;;;12.25;11.45;;;;;;;;;;4995154;28;20041;-58
2023/05/05 03:53:42;;;;;;;13.07;12.27;;;;;;;;;;4998292;28;20042;-58
2023/05/05 03:56:08;;;;;;;11.38;10.68;;;;;;;;;;4996053;28;20034;-58
2023/05/05 03:58:33;;;;;;;10.93;10.23;;;;;;;;;;5002257;28;20062;-58
2023/05/05 04:00:58;;;;;;;10.18;9.48;;;;;;;;;;5000511;28;20034;-58
2023/05/05 04:03:24;;;;;;;11.43;10.73;;;;;;;;;;4998953;28;20113;-58
2023/05/05 04:05:49;;;;;;;10.88;10.18;;;;;;;;;;5002024;28;20117;-58
2023/05/05 04:08:15;;;;;;;10.20;9.60;;;;;;;;;;5002014;28;20037;-59
2023/05/05 04:10:40;;;;;;;12.20;11.40;;;;;;;;;;5000293;28;20510;-58
2023/05/05 04:13:06;;;;;;;11.68;10.98;;;;;;;;;;5001781;28;20038;-57
2023/05/05 04:15:31;;;;;;;11.75;10.95;;;;;;;;;;4996968;28;20602;-58
2023/05/05 04:17:57;;;;;;;10.80;10.02;;;;;;;;;;5000271;28;20041;-58
2023/05/05 04:20:22;;;;;;;10.85;10.15;;;;;;;;;;4998669;28;20443;-58
2023/05/05 04:22:47;;;;;;;21.40;11.40;;;;;;;;;;5000494;28;20038;-58
2023/05/05 04:25:13;;;;;;;11.52;10.80;;;;;;;;;;5000086;28;20037;-58
2023/05/05 04:27:38;;;;;;;9.98;9.38;;;;;;;;;;4995453;28;20423;-59
2023/05/05 04:30:04;;;;;;;9.93;9.32;;;;;;;;;;4999547;28;20065;-58
2023/05/05 04:32:30;;;;;;;10.40;9.70;;;;;;;;;;5002039;28;20589;-59
2023/05/05 04:34:55;;;;;;;11.18;10.48;;;;;;;;;;5001652;28;20067;-58
2023/05/05 04:37:20;;;;;;;11.13;10.40;;;;;;;;;;4999863;28;20037;-57
2023/05/05 04:39:46;;;;;;;10.30;9.68;;;;;;;;;;4999396;28;20049;-58
2023/05/05 04:42:11;;;;;;;10.30;9.68;;;;;;;;;;5001278;28;20033;-57
2023/05/05 04:44:36;;;;;;;11.30;10.52;;;;;;;;;;4999179;28;20095;-58
2023/05/05 04:47:02;;;;;;;10.82;10.13;;;;;;;;;;5001630;28;20464;-62
2023/05/05 04:49:29;;;;;;;11.88;11.18;;;;;;;;;;4999229;28;20042;-57
2023/05/05 04:51:54;;;;;;;12.05;11.25;;;;;;;;;;5000969;28;20041;-58
2023/05/05 04:54:20;;;;;;;10.93;10.23;;;;;;;;;;4981612;28;20102;-57
2023/05/05 04:56:46;;;;;;;11.65;10.88;;;;;;;;;;5000916;28;20038;-58
2023/05/05 04:59:12;;;;;;;10.57;9.93;;;;;;;;;;4998671;28;20376;-57
2023/05/05 05:01:38;;;;;;;11.98;11.23;;;;;;;;;;4997117;28;20061;-57
2023/05/05 05:04:03;;;;;;;11.10;10.40;;;;;;;;;;4998252;28;20041;-58
2023/05/05 05:06:29;;;;;;;11.55;10.75;;;;;;;;;;4998446;28;20077;-57
2023/05/05 05:08:54;;;;;;;11.13;10.43;;;;;;;;;;5001591;28;20034;-58
2023/05/05 05:11:20;;;;;;;10.52;9.82;;;;;;;;;;4998105;28;20367;-58
2023/05/05 05:13:46;;;;;;;11.32;10.63;;;;;;;;;;4997588;28;20120;-58
2023/05/05 05:16:12;;;;;;;11.70;11.00;;;;;;;;;;4980049;28;20121;-58
2023/05/05 05:18:37;;;;;;;12.43;11.63;;;;;;;;;;4996840;28;20738;-59
2023/05/05 05:21:02;;;;;;;11.82;10.93;;;;;;;;;;4998428;28;20048;-58
2023/05/05 05:23:28;;;;;;;12.50;11.80;;;;;;;;;;4980186;28;20053;-58
2023/05/05 05:25:53;;;;;;;11.10;10.40;;;;;;;;;;4996153;28;20096;-58
2023/05/05 05:28:18;;;;;;;13.52;12.68;;;;;;;;;;4998722;28;20037;-58
2023/05/05 05:30:44;;;;;;;14.65;13.65;;;;;;;;;;5001639;28;20073;-58
2023/05/05 05:33:09;;;;;;;12.45;11.73;;;;;;;;;;5001294;28;20042;-58
2023/05/05 05:35:34;;;;;;;13.68;12.75;;;;;;;;;;4995967;28;20073;-58
2023/05/05 05:38:00;;;;;;;13.23;12.43;;;;;;;;;;4997192;28;20077;-58
2023/05/05 05:40:25;;;;;;;15.10;14.20;;;;;;;;;;5001275;28;20128;-58
2023/05/05 05:42:51;;;;;;;15.48;14.18;;;;;;;;;;4998793;28;20542;-59
2023/05/05 05:45:16;;;;;;;14.27;13.48;;;;;;;;;;5001326;28;20030;-58
2023/05/05 05:47:41;;;;;;;15.95;14.70;;;;;;;;;;4998905;28;20053;-59
2023/05/05 05:50:07;;;;;;;16.38;15.43;;;;;;;;;;4999436;28;20053;-58
2023/05/05 05:52:34;;;;;;;16.38;15.45;;;;;;;;;;5001900;28;20038;-58
2023/05/05 05:55:00;;;;;;;20.55;19.08;;;;;;;;;;4999109;28;20065;-58
2023/05/05 05:57:26;;;;;;;20.45;19.05;;;;;;;;;;4997108;28;20113;-58
2023/05/05 05:59:52;;;;;;;21.30;20.10;;;;;;;;;;5000385;28;20034;-58
2023/05/05 06:02:18;;;;;;;22.80;21.50;;;;;;;;;;4999530;28;20038;-58
2023/05/05 06:04:43;;;;;;;26.23;24.80;;;;;;;;;;4995269;28;20062;-58
2023/05/05 06:07:08;;;;;;;26.27;24.85;;;;;;;;;;4997521;28;20057;-58
2023/05/05 06:09:34;;;;;;;24.38;23.02;;;;;;;;;;4998480;28;20037;-58
2023/05/05 06:12:00;;;;;;;26.83;25.33;;;;;;;;;;4996434;28;20037;-59
2023/05/05 06:14:26;;;;;;;25.65;24.15;;;;;;;;;;4996681;28;20112;-58
2023/05/05 06:16:51;;;;;;;26.55;25.10;;;;;;;;;;4997289;28;20118;-59
2023/05/05 06:19:16;;;;;;;25.27;23.77;;;;;;;;;;4996876;28;20109;-59
2023/05/05 06:21:42;;;;;;;24.67;23.38;;;;;;;;;;4981018;28;20034;-59
2023/05/05 06:24:07;;;;;;;25.67;24.08;;;;;;;;;;4994480;28;20571;-59
2023/05/05 06:26:32;;;;;;;25.75;24.35;;;;;;;;;;4996406;28;20099;-58
2023/05/05 06:28:58;;;;;;;24.30;22.75;;;;;;;;;;4995805;28;20049;-59
2023/05/05 06:31:23;;;;;;;24.10;22.80;;;;;;;;;;4987067;28;20066;-58
2023/05/05 06:33:48;;;;;;;19.20;17.63;;;;;;;;;;4997641;28;20543;-58
2023/05/05 06:36:14;;;;;;;17.55;16.48;;;;;;;;;;4997101;28;20092;-58
2023/05/05 06:38:40;;;;;;;13.73;12.93;;;;;;;;;;4979727;28;20066;-59
2023/05/05 06:41:05;;;;;;;15.27;14.23;;;;;;;;;;4997399;28;20046;-58
2023/05/05 06:43:30;;;;;;;13.63;12.75;;;;;;;;;;4997524;28;20030;-58
2023/05/05 06:45:56;;;;;;;13.90;13.00;;;;;;;;;;4999477;28;20042;-58
2023/05/05 06:48:21;;;;;;;12.73;11.85;;;;;;;;;;4996596;28;20388;-58
2023/05/05 06:50:47;;;;;;;12.23;11.38;;;;;;;;;;5002477;28;20726;-59
2023/05/05 06:53:12;;;;;;;13.38;12.48;;;;;;;;;;4986447;28;20061;-59
2023/05/05 06:55:41;;;;;;;12.82;11.82;;;;;;;;;;4999000;28;20030;-59
2023/05/05 06:58:07;;;;;;;11.55;10.85;;;;;;;;;;4985429;28;20232;-59
2023/05/05 07:00:32;;;;;;;11.82;11.13;;;;;;;;;;4999653;28;20536;-59
2023/05/05 07:02:57;;;;;;;12.77;11.98;;;;;;;;;;4998344;28;20060;-59
2023/05/05 07:05:23;;;;;;;13.52;12.73;;;;;;;;;;4997159;28;20037;-59
2023/05/05 07:07:55;;;;;;;13.90;12.88;;;;;;;;;;4998290;28;20030;-60
2023/05/05 07:10:22;;;;;;;12.48;11.68;;;;;;;;;;4996969;28;20072;-60
2023/05/05 07:12:47;;;;;;;13.23;12.43;;;;;;;;;;4998192;28;20034;-60
2023/05/05 07:15:13;;;;;;;13.50;12.70;;;;;;;;;;4996704;28;20357;-59
2023/05/05 07:17:39;;;;;;;13.05;12.15;;;;;;;;;;4997780;28;20467;-59
2023/05/05 07:20:06;;;;;;;13.90;13.00;;;;;;;;;;4999157;28;20042;-60
2023/05/05 07:22:31;;;;;;;12.68;11.88;;;;;;;;;;4997142;28;20038;-59
2023/05/05 07:24:57;;;;;;;12.88;12.07;;;;;;;;;;4995617;28;20503;-61
2023/05/05 07:27:22;;;;;;;12.95;12.15;;;;;;;;;;4997571;28;20045;-61
2023/05/05 07:29:48;;;;;;;14.48;13.57;;;;;;;;;;4997344;28;20030;-59
2023/05/05 07:32:13;;;;;;;13.63;12.63;;;;;;;;;;5001766;28;20380;-59
2023/05/05 07:34:39;;;;;;;12.57;11.77;;;;;;;;;;5001868;28;20156;-59
2023/05/05 07:37:05;;;;;;;13.32;12.52;;;;;;;;;;5002033;28;20124;-59
2023/05/05 07:39:31;;;;;;;13.77;12.98;;;;;;;;;;5001409;28;20037;-59
2023/05/05 07:41:57;;;;;;;14.38;13.48;;;;;;;;;;5002082;28;20607;-59
2023/05/05 07:44:22;;;;;;;13.55;12.75;;;;;;;;;;5001676;28;20042;-59
2023/05/05 07:46:47;;;;;;;14.98;14.07;;;;;;;;;;4983789;28;20349;-60
2023/05/05 07:49:13;;;;;;;15.30;14.45;;;;;;;;;;5001489;28;20042;-59
2023/05/05 07:51:38;;;;;;;21.67;20.38;;;;;;;;;;5002433;28;20037;-59
2023/05/05 07:54:04;;;;;;;17.95;16.95;;;;;;;;;;5000532;28;20060;-59
2023/05/05 07:56:30;;;;;;;32.42;30.73;;;;;;;;;;5000118;28;20033;-60
2023/05/05 07:58:55;;;;;;;37.00;35.05;;;;;;;;;;5001252;28;20041;-60
2023/05/05 08:01:21;;;;;;;41.05;38.90;;;;;;;;;;5002192;28;20030;-59
2023/05/05 08:03:46;;;;;;;43.33;41.08;;;;;;;;;;4999757;28;20041;-60
2023/05/05 08:06:14;;;;;;;35.65;33.80;;;;;;;;;;5001878;28;20072;-59
2023/05/05 08:08:40;;;;;;;44.72;42.38;;;;;;;;;;4999577;28;20057;-60
2023/05/05 08:11:05;;;;;;;38.47;36.50;;;;;;;;;;4999738;28;20061;-59
2023/05/05 08:13:31;;;;;;;26.92;25.50;;;;;;;;;;5000094;28;20113;-59
2023/05/05 08:15:56;;;;;;;23.48;22.17;;;;;;;;;;4998364;28;20045;-57
2023/05/05 08:18:23;;;;;;;25.30;23.90;;;;;;;;;;5004280;28;20072;-57
2023/05/05 08:20:49;;;;;;;20.88;19.73;;;;;;;;;;4998891;28;20029;-59
2023/05/05 08:23:15;;;;;;;16.77;15.77;;;;;;;;;;4999440;28;20481;-59
2023/05/05 08:25:40;;;;;;;16.42;15.43;;;;;;;;;;4997237;28;20037;-60
2023/05/05 08:28:05;;;;;;;15.85;14.95;;;;;;;;;;4999175;28;21537;-59
2023/05/05 08:30:31;;;;;;;17.50;16.50;;;;;;;;;;5004980;28;20038;-59
2023/05/05 08:32:57;;;;;;;19.90;18.77;;;;;;;;;;4999664;28;20040;-60
2023/05/05 08:35:22;;;;;;;19.73;18.60;;;;;;;;;;4997046;28;20045;-60
2023/05/05 08:37:49;;;;;;;34.75;32.95;;;;;;;;;;4999671;28;20030;-60
2023/05/05 08:40:15;;;;;;;44.00;41.70;;;;;;;;;;4992944;28;20305;-62
2023/05/05 08:42:41;;;;;;;37.60;35.67;;;;;;;;;;5002258;28;20041;-58
2023/05/05 08:45:08;;;;;;;31.10;29.42;;;;;;;;;;4997272;28;20033;-61
2023/05/05 08:47:34;;;;;;;34.03;32.25;;;;;;;;;;4998928;28;20087;-59
2023/05/05 08:50:00;;;;;;;39.28;37.22;;;;;;;;;;5000438;28;20034;-58
2023/05/05 08:52:31;;;;;;;52.90;50.20;;;;;;;;;;4998734;28;20377;-58
2023/05/05 08:55:08;;;;;;;44.10;41.83;;;;;;;;;;5000658;28;20037;-58
2023/05/05 08:57:44;;;;;;;51.63;49.00;;;;;;;;;;4998374;28;20030;-58
2023/05/05 09:00:11;;;;;;;55.50;52.72;;;;;;;;;;4997730;28;20082;-58
2023/05/05 09:02:37;;;;;;;45.00;42.60;;;;;;;;;;4996513;28;20038;-58
2023/05/05 09:05:05;;;;;;;40.80;38.70;;;;;;;;;;5001093;28;20034;-59
2023/05/05 09:07:32;;;;;;;41.63;39.45;;;;;;;;;;4998687;28;20083;-58
2023/05/05 09:09:59;;;;;;;35.80;33.95;;;;;;;;;;4997643;28;20595;-58
2023/05/05 09:12:29;;;;;;;44.92;42.60;;;;;;;;;;5002908;28;20460;-58
2023/05/05 09:14:54;;;;;;;49.78;47.28;;;;;;;;;;4995611;28;20076;-59
2023/05/05 09:17:26;;;;;;;55.13;52.35;;;;;;;;;;4996300;28;20451;-58
2023/05/05 09:20:09;;;;;;;59.83;56.80;;;;;;;;;;4998871;28;20022;-58
2023/05/05 09:22:43;;;;;;;56.97;54.08;;;;;;;;;;4998309;28;20512;-58
2023/05/05 09:25:10;;;;;;;56.35;53.50;;;;;;;;;;4998389;28;20042;-58
2023/05/05 09:27:39;;;;;;;54.78;52.00;;;;;;;;;;5001029;28;20061;-58
2023/05/05 09:30:06;;;;;;;53.35;50.63;;;;;;;;;;4979576;28;20113;-58
2023/05/05 09:32:50;;;;;;;58.15;55.08;;;;;;;;;;5000746;28;20057;-58
2023/05/05 09:35:17;;;;;;;58.33;55.08;;;;;;;;;;4997962;28;20049;-58
2023/05/05 09:37:43;;;;;;;55.20;52.40;;;;;;;;;;4997702;28;20464;-58
2023/05/05 09:40:10;;;;;;;59.55;56.55;;;;;;;;;;4997615;28;20042;-59
2023/05/05 09:42:36;;;;;;;66.80;63.45;;;;;;;;;;4999009;28;20034;-59
2023/05/05 09:45:03;;;;;;;60.70;57.65;;;;;;;;;;4995645;28;20036;-58
2023/05/05 09:47:33;;;;;;;74.18;70.50;;;;;;;;;;4997483;28;20022;-59
2023/05/05 09:49:58;;;;;;;105.38;100.15;;;;;;;;;;5002362;28;20042;-59
2023/05/05 09:52:24;;;;;;;65.57;62.33;;;;;;;;;;4999149;28;20135;-58
2023/05/05 09:54:56;;;;;;;68.75;65.30;;;;;;;;;;4998618;28;20630;-58
2023/05/05 09:57:30;;;;;;;107.03;101.75;;;;;;;;;;4997320;28;20018;-58
2023/05/05 10:00:03;;;;;;;89.10;84.70;;;;;;;;;;4997003;28;20033;-58
2023/05/05 10:02:33;;;;;;;96.35;91.55;;;;;;;;;;4998196;28;20030;-58
2023/05/05 10:05:05;;;;;;;90.00;85.55;;;;;;;;;;4987208;28;20037;-58
2023/05/05 10:07:30;;;;;;;98.93;94.07;;;;;;;;;;4998318;28;20038;-58
2023/05/05 10:09:56;;;;;;;96.65;91.88;;;;;;;;;;4999512;28;20048;-59
2023/05/05 10:12:23;;;;;;;117.47;111.70;;;;;;;;;;4994197;28;20030;-59
2023/05/05 10:14:53;;;;;;;102.68;97.65;;;;;;;;;;4996841;28;20460;-59
2023/05/05 10:17:21;;;;;;;100.15;95.20;;;;;;;;;;4998762;28;20041;-58
2023/05/05 10:19:49;;;;;;;111.05;105.53;;;;;;;;;;4991643;28;20472;-58
2023/05/05 10:22:15;;;;;;;113.40;107.85;;;;;;;;;;4994979;28;20614;-58
2023/05/05 10:25:12;;;;;;;112.70;107.13;;;;;;;;;;4994582;28;20042;-58
2023/05/05 10:27:51;;;;;;;56.97;54.08;;;;;;;;;;4998484;28;20161;-58
2023/05/05 10:30:22;;;;;;;38.38;36.35;;;;;;;;;;4999006;28;20091;-58
2023/05/05 10:32:53;;;;;;;37.67;35.47;;;;;;;;;;4997750;28;20038;-58
2023/05/05 10:35:23;;;;;;;47.22;44.83;;;;;;;;;;5000093;28;20034;-58
2023/05/05 10:37:49;;;;;;;55.88;53.03;;;;;;;;;;4997638;28;20033;-58
2023/05/05 10:40:16;;;;;;;70.70;67.18;;;;;;;;;;4998886;28;20073;-59
2023/05/05 10:42:42;;;;;;;78.70;74.80;;;;;;;;;;4999126;28;20030;-59
2023/05/05 10:45:08;;;;;;;102.15;96.90;;;;;;;;;;4996627;28;20663;-59
2023/05/05 10:47:35;;;;;;;108.03;102.70;;;;;;;;;;4996773;28;20046;-58
2023/05/05 10:50:27;;;;;;;88.75;84.38;;;;;;;;;;4996964;28;20448;-59
2023/05/05 10:53:20;;;;;;;88.85;84.43;;;;;;;;;;4997201;28;20116;-61
2023/05/05 10:55:49;;;;;;;73.32;69.70;;;;;;;;;;4997690;28;20045;-59
2023/05/05 10:58:34;;;;;;;79.53;75.57;;;;;;;;;;4996442;28;20030;-59
2023/05/05 11:01:01;;;;;;;42.20;40.05;;;;;;;;;;4997714;28;20597;-59
2023/05/05 11:03:26;;;;;;;24.70;23.40;;;;;;;;;;4997554;28;20026;-59
2023/05/05 11:06:04;;;;;;;46.55;44.17;;;;;;;;;;4996221;28;20048;-59
2023/05/05 11:08:31;;;;;;;37.33;35.42;;;;;;;;;;4993386;28;20038;-58
2023/05/05 11:10:57;;;;;;;36.85;34.95;;;;;;;;;;4994525;28;20046;-58
2023/05/05 11:13:22;;;;;;;44.47;42.25;;;;;;;;;;4997636;28;20038;-58
2023/05/05 11:15:50;;;;;;;37.28;35.35;;;;;;;;;;4998115;28;20038;-59
2023/05/05 11:18:36;;;;;;;38.70;36.72;;;;;;;;;;4997868;28;20062;-58
2023/05/05 11:21:16;;;;;;;32.25;30.55;;;;;;;;;;4994137;28;20045;-58
2023/05/05 11:23:42;;;;;;;34.45;32.67;;;;;;;;;;4984426;28;20464;-58
2023/05/05 11:26:08;;;;;;;37.35;35.40;;;;;;;;;;4997458;28;20305;-58
2023/05/05 11:28:33;;;;;;;34.28;32.47;;;;;;;;;;4995829;28;20030;-58
2023/05/05 11:31:01;;;;;;;39.70;37.50;;;;;;;;;;4994628;28;20042;-59
2023/05/05 11:33:35;;;;;;;43.30;41.10;;;;;;;;;;4998066;28;20037;-59
2023/05/05 11:36:03;;;;;;;51.50;48.90;;;;;;;;;;4998353;28;20491;-58
2023/05/05 11:38:40;;;;;;;52.80;50.15;;;;;;;;;;4998054;28;20453;-58
2023/05/05 11:41:17;;;;;;;49.78;47.28;;;;;;;;;;4979717;28;20048;-58
2023/05/05 11:43:42;;;;;;;91.18;86.70;;;;;;;;;;4996905;28;20068;-59
2023/05/05 11:46:15;;;;;;;101.53;96.53;;;;;;;;;;4995652;28;20077;-59
2023/05/05 11:48:45;;;;;;;57.83;54.92;;;;;;;;;;4995001;28;20026;-59
2023/05/05 11:51:12;;;;;;;76.90;73.10;;;;;;;;;;4999915;28;20048;-59
2023/05/05 11:53:41;;;;;;;71.93;68.32;;;;;;;;;;5000483;28;20723;-59
2023/05/05 11:56:11;;;;;;;70.45;66.95;;;;;;;;;;4994816;28;20272;-59
2023/05/05 11:58:37;;;;;;;81.90;77.82;;;;;;;;;;4998501;28;20117;-59
2023/05/05 12:01:06;;;;;;;75.97;72.18;;;;;;;;;;4997399;28;20564;-59
2023/05/05 12:03:38;;;;;;;89.30;84.90;;;;;;;;;;4999046;28;20038;-58
2023/05/05 12:06:05;;;;;;;117.50;111.72;;;;;;;;;;4994672;28;20371;-59
2023/05/05 12:08:37;;;;;;;120.28;114.35;;;;;;;;;;4995798;28;20040;-58
2023/05/05 12:11:08;;;;;;;109.45;104.07;;;;;;;;;;4995867;28;20177;-58
2023/05/05 12:13:33;;;;;;;112.65;107.13;;;;;;;;;;4996728;28;20527;-58
2023/05/05 12:16:09;;;;;;;115.22;109.57;;;;;;;;;;4994289;28;20137;-58
2023/05/05 12:18:35;;;;;;;114.32;108.72;;;;;;;;;;4999982;28;20038;-58
2023/05/05 12:21:00;;;;;;;125.75;119.55;;;;;;;;;;5000300;28;20472;-58
2023/05/05 12:23:28;;;;;;;115.18;109.53;;;;;;;;;;5001880;28;20042;-59
2023/05/05 12:25:54;;;;;;;106.40;101.18;;;;;;;;;;4998753;28;20065;-58
2023/05/05 12:28:20;;;;;;;105.40;100.22;;;;;;;;;;5000129;28;20034;-58
2023/05/05 12:30:56;;;;;;;92.95;88.35;;;;;;;;;;5000136;28;20124;-58
2023/05/05 12:33:21;;;;;;;89.18;84.78;;;;;;;;;;5000649;28;20471;-58
2023/05/05 12:35:47;;;;;;;88.40;84.05;;;;;;;;;;4995885;28;20049;-58
2023/05/05 12:38:14;;;;;;;104.78;99.60;;;;;;;;;;4998919;28;20029;-58
2023/05/05 12:40:48;;;;;;;113.50;107.90;;;;;;;;;;4998432;28;20118;-58
2023/05/05 12:43:23;;;;;;;118.43;112.57;;;;;;;;;;4997854;28;20038;-59
2023/05/05 12:46:07;;;;;;;111.60;106.13;;;;;;;;;;5000160;28;20070;-58
2023/05/05 12:48:34;;;;;;;76.13;72.35;;;;;;;;;;4995773;28;20045;-58
2023/05/05 12:51:21;;;;;;;75.95;72.18;;;;;;;;;;4997518;28;20037;-59
2023/05/05 12:53:59;;;;;;;74.45;70.72;;;;;;;;;;4997052;28;20129;-59
2023/05/05 12:56:33;;;;;;;58.03;55.13;;;;;;;;;;4980681;28;20073;-60
2023/05/05 12:59:00;;;;;;;52.08;49.47;;;;;;;;;;4998801;28;20054;-59
2023/05/05 13:01:26;;;;;;;63.20;60.03;;;;;;;;;;5002300;28;20037;-58
2023/05/05 13:04:11;;;;;;;76.03;72.25;;;;;;;;;;5000404;28;20065;-58
2023/05/05 13:06:42;;;;;;;76.90;73.10;;;;;;;;;;4997295;28;20366;-59
2023/05/05 13:09:08;;;;;;;89.75;85.38;;;;;;;;;;4997661;28;20042;-58
2023/05/05 13:11:35;;;;;;;93.63;89.03;;;;;;;;;;5001277;28;20121;-58
2023/05/05 13:14:01;;;;;;;76.03;72.25;;;;;;;;;;4998822;28;20052;-58
2023/05/05 13:16:26;;;;;;;76.72;72.93;;;;;;;;;;4999746;28;20038;-59
2023/05/05 13:18:52;;;;;;;70.95;67.45;;;;;;;;;;4998277;28;20065;-58
2023/05/05 13:21:17;;;;;;;66.18;62.88;;;;;;;;;;4998867;28;20030;-59
2023/05/05 13:23:44;;;;;;;54.65;51.92;;;;;;;;;;4998025;28;20766;-58
2023/05/05 13:26:10;;;;;;;49.65;47.13;;;;;;;;;;4984634;28;20128;-58
2023/05/05 13:28:35;;;;;;;51.92;49.33;;;;;;;;;;4997449;28;20587;-58
2023/05/05 13:31:01;;;;;;;43.00;40.78;;;;;;;;;;4999673;28;20069;-59
2023/05/05 13:33:26;;;;;;;40.88;38.78;;;;;;;;;;4998482;28;20396;-58
2023/05/05 13:35:52;;;;;;;41.17;39.08;;;;;;;;;;4999818;28;20065;-58
2023/05/05 13:38:17;;;;;;;60.30;57.30;;;;;;;;;;4997705;28;20030;-58
2023/05/05 13:40:43;;;;;;;50.88;48.33;;;;;;;;;;4998465;28;20045;-60
2023/05/05 13:43:08;;;;;;;44.08;41.88;;;;;;;;;;4994905;28;20057;-59
2023/05/05 13:45:33;;;;;;;51.45;48.85;;;;;;;;;;5000430;28;20120;-59
2023/05/05 13:47:59;;;;;;;51.25;48.70;;;;;;;;;;4997402;28;20096;-58
2023/05/05 13:50:24;;;;;;;39.83;37.83;;;;;;;;;;4987887;28;20076;-58
2023/05/05 13:52:50;;;;;;;63.28;60.15;;;;;;;;;;4980492;28;20058;-58
2023/05/05 13:55:15;;;;;;;64.22;61.03;;;;;;;;;;4997723;28;20045;-58
2023/05/05 13:57:41;;;;;;;48.85;46.40;;;;;;;;;;4997070;28;20042;-58
2023/05/05 14:00:07;;;;;;;53.78;51.08;;;;;;;;;;4988384;28;20049;-58
2023/05/05 14:02:32;;;;;;;44.28;41.97;;;;;;;;;;5002681;28;20045;-59
2023/05/05 14:04:57;;;;;;;50.63;48.10;;;;;;;;;;4994792;28;20042;-59
2023/05/05 14:07:23;;;;;;;46.20;43.90;;;;;;;;;;4997619;28;20759;-57
2023/05/05 14:09:48;;;;;;;64.50;61.30;;;;;;;;;;4998751;28;20500;-57
2023/05/05 14:12:13;;;;;;;66.25;62.95;;;;;;;;;;4993233;28;20929;-56
2023/05/05 14:14:39;;;;;;;65.03;61.78;;;;;;;;;;4984175;28;20132;-55
2023/05/05 14:17:04;;;;;;;65.68;62.40;;;;;;;;;;4996043;28;20026;-57
2023/05/05 14:19:30;;;;;;;75.35;71.65;;;;;;;;;;4996166;28;20060;-57
2023/05/05 14:21:56;;;;;;;72.70;69.10;;;;;;;;;;4998812;28;20547;-57